Time;durP1;ratioP1;P1;durP2;ratioP2;P2;SDS_P1;SDS_P2;PMS_P1;PMS_P2;Temp;Humidity;BMP_temperature;BMP_pressure;BME280_temperature;BME280_humidity;BME280_pressure;Samples;Min_cycle;Max_cycle;Signal;HPM_P1;HPM_P2
2023/12/25 00:00:11;;;;;;;10.60;10.30;;;9.20;99.90;;;;;;5110527;28;20283;-88
2023/12/25 00:02:50;;;;;;;10.40;10.10;;;9.20;99.90;;;;;;5112381;28;20218;-86
2023/12/25 00:13:32;;;;;;;10.50;10.20;;;9.30;99.90;;;;;;5111927;28;20205;-88
2023/12/25 00:16:02;;;;;;;10.27;9.97;;;9.30;99.90;;;;;;5113776;28;20299;-88
2023/12/25 00:18:30;;;;;;;10.30;10.00;;;9.30;99.90;;;;;;5130108;28;20225;-88
2023/12/25 00:23:48;;;;;;;10.87;10.57;;;9.30;99.90;;;;;;5113477;28;20217;-87
2023/12/25 00:26:17;;;;;;;10.90;10.60;;;9.20;99.90;;;;;;5112094;28;20229;-88
2023/12/25 00:28:46;;;;;;;11.57;11.17;;;9.20;99.90;;;;;;5109997;28;20344;-86
2023/12/25 00:31:16;;;;;;;11.37;10.97;;;9.20;99.90;;;;;;5111697;28;20222;-86
2023/12/25 00:33:47;;;;;;;10.73;10.43;;;9.20;99.90;;;;;;5113861;28;20217;-89
2023/12/25 00:39:00;;;;;;;11.30;10.90;;;9.00;99.90;;;;;;5112725;28;20227;-88
2023/12/25 00:41:40;;;;;;;11.27;10.87;;;9.10;99.90;;;;;;5111924;28;20232;-88
2023/12/25 00:44:08;;;;;;;11.20;10.80;;;9.10;99.90;;;;;;5115343;28;20225;-88
2023/12/25 00:46:37;;;;;;;10.90;10.60;;;9.10;99.90;;;;;;5129140;28;20257;-89
2023/12/25 00:49:07;;;;;;;11.20;10.80;;;9.10;99.90;;;;;;5113856;28;20235;-89
2023/12/25 00:51:45;;;;;;;11.07;10.67;;;9.10;99.90;;;;;;5128729;28;20221;-88
2023/12/25 00:54:15;;;;;;;10.93;10.60;;;9.10;99.90;;;;;;5112760;28;20240;-89
2023/12/25 00:56:45;;;;;;;10.90;10.60;;;9.20;99.90;;;;;;5112461;28;20299;-89
2023/12/25 00:59:13;;;;;;;10.73;10.43;;;9.20;99.90;;;;;;5119729;28;20241;-89
2023/12/25 01:01:43;;;;;;;10.93;10.57;;;9.20;99.90;;;;;;5118376;28;20277;-88
2023/12/25 01:04:13;;;;;;;10.70;10.40;;;9.30;99.90;;;;;;5118664;28;20232;-89
2023/12/25 01:06:41;;;;;;;10.90;10.60;;;9.30;99.90;;;;;;5149410;22;20240;-80
2023/12/25 01:09:09;;;;;;;10.53;10.23;;;9.30;99.90;;;;;;5084309;28;20241;-82
2023/12/25 01:11:41;;;;;;;10.83;10.53;;;9.30;99.90;;;;;;5086816;28;20218;-83
2023/12/25 01:14:10;;;;;;;10.53;10.23;;;9.30;99.90;;;;;;5089004;28;20226;-81
2023/12/25 01:16:39;;;;;;;10.80;10.50;;;9.40;99.90;;;;;;5087313;28;20295;-82
2023/12/25 01:19:11;;;;;;;10.70;10.40;;;9.40;99.90;;;;;;5086003;28;20234;-81
2023/12/25 01:21:39;;;;;;;10.80;10.50;;;9.40;99.90;;;;;;5086824;28;20226;-83
2023/12/25 01:24:08;;;;;;;10.40;10.10;;;9.40;99.90;;;;;;5085690;28;20237;-83
2023/12/25 01:26:36;;;;;;;10.50;10.20;;;9.40;99.90;;;;;;5086055;28;20257;-82
2023/12/25 01:29:03;;;;;;;10.20;9.90;;;9.40;99.90;;;;;;5084836;28;20235;-83
2023/12/25 01:31:31;;;;;;;10.20;9.90;;;9.40;99.90;;;;;;5084627;28;20241;-83
2023/12/25 01:33:58;;;;;;;10.33;10.03;;;9.40;99.90;;;;;;5084813;28;20213;-83
2023/12/25 01:36:28;;;;;;;10.57;10.27;;;9.40;99.90;;;;;;5086391;28;20230;-82
2023/12/25 01:38:58;;;;;;;10.63;10.33;;;9.40;99.90;;;;;;5087670;28;20222;-83
2023/12/25 01:41:28;;;;;;;10.50;10.20;;;9.40;99.90;;;;;;5087267;28;20256;-83
2023/12/25 01:43:56;;;;;;;10.73;10.43;;;9.40;99.90;;;;;;5084341;28;20249;-83
2023/12/25 01:46:24;;;;;;;10.47;10.17;;;9.40;99.90;;;;;;5083933;28;20234;-82
2023/12/25 01:48:52;;;;;;;10.40;10.10;;;9.50;99.90;;;;;;5083054;28;20281;-83
2023/12/25 01:51:23;;;;;;;10.40;10.10;;;9.50;99.90;;;;;;5084369;28;20277;-83
2023/12/25 01:53:51;;;;;;;10.67;10.37;;;9.50;99.90;;;;;;5084194;28;20217;-83
2023/12/25 01:56:19;;;;;;;10.50;10.20;;;9.50;99.90;;;;;;5084079;28;20249;-83
2023/12/25 01:58:48;;;;;;;10.60;10.30;;;9.50;99.90;;;;;;5087348;28;20293;-81
2023/12/25 02:01:16;;;;;;;10.40;10.10;;;9.50;99.90;;;;;;5087238;28;20291;-82
2023/12/25 02:03:44;;;;;;;10.60;10.30;;;9.50;99.90;;;;;;5085233;28;20222;-83
2023/12/25 02:06:13;;;;;;;10.57;10.27;;;9.40;99.90;;;;;;5085297;28;20233;-82
2023/12/25 02:08:41;;;;;;;10.30;10.00;;;9.50;99.90;;;;;;5083239;28;20261;-82
2023/12/25 02:11:08;;;;;;;10.37;10.07;;;9.50;99.90;;;;;;5083897;28;20233;-83
2023/12/25 02:13:36;;;;;;;10.47;10.17;;;9.50;99.90;;;;;;5084494;28;20226;-82
2023/12/25 02:16:06;;;;;;;10.17;9.87;;;9.40;99.90;;;;;;5083713;28;20230;-84
2023/12/25 02:18:36;;;;;;;10.27;9.97;;;9.40;99.90;;;;;;5083537;28;20230;-83
2023/12/25 02:21:05;;;;;;;10.30;10.00;;;9.40;99.90;;;;;;5083064;28;20324;-82
2023/12/25 02:23:38;;;;;;;10.20;9.90;;;9.40;99.90;;;;;;5084279;28;20250;-82
2023/12/25 02:26:10;;;;;;;10.20;9.90;;;9.40;99.90;;;;;;5084344;28;20285;-83
2023/12/25 02:28:37;;;;;;;10.27;9.97;;;9.40;99.90;;;;;;5082889;28;20230;-82
2023/12/25 02:31:08;;;;;;;10.30;10.00;;;9.50;99.90;;;;;;5083659;28;20233;-83
2023/12/25 02:33:35;;;;;;;10.50;10.20;;;9.50;99.90;;;;;;5084037;28;20229;-82
2023/12/25 02:36:03;;;;;;;10.20;9.90;;;9.50;99.90;;;;;;5083349;28;20257;-83
2023/12/25 02:38:31;;;;;;;10.40;10.10;;;9.50;99.90;;;;;;5082721;28;20230;-82
2023/12/25 02:40:58;;;;;;;10.47;10.17;;;9.50;99.90;;;;;;5084472;28;20229;-82
2023/12/25 02:43:27;;;;;;;10.23;9.93;;;9.50;99.90;;;;;;5085213;28;20234;-81
2023/12/25 02:45:55;;;;;;;10.30;10.00;;;9.50;99.90;;;;;;5085470;28;20261;-82
2023/12/25 02:48:22;;;;;;;10.10;9.80;;;9.50;99.90;;;;;;5083740;28;20261;-81
2023/12/25 02:50:50;;;;;;;10.33;10.03;;;9.50;99.90;;;;;;5083495;28;20230;-83
2023/12/25 02:53:17;;;;;;;10.17;9.87;;;9.60;99.90;;;;;;5084428;28;20281;-83
2023/12/25 02:55:45;;;;;;;10.13;9.83;;;9.60;99.90;;;;;;5083867;28;20230;-82
2023/12/25 02:58:13;;;;;;;10.20;9.90;;;9.50;99.90;;;;;;5083224;28;20257;-82
2023/12/25 03:00:42;;;;;;;10.20;9.90;;;9.60;99.90;;;;;;5083245;28;20325;-82
2023/12/25 03:03:09;;;;;;;10.17;9.87;;;9.60;99.90;;;;;;5081908;28;20230;-82
2023/12/25 03:05:37;;;;;;;10.10;9.80;;;9.60;99.90;;;;;;5083979;28;20240;-82
2023/12/25 03:08:05;;;;;;;10.47;10.17;;;9.60;99.90;;;;;;5082605;28;20243;-82
2023/12/25 03:10:32;;;;;;;10.20;9.90;;;9.60;99.90;;;;;;5082573;28;20238;-82
2023/12/25 03:12:59;;;;;;;9.97;9.67;;;9.60;99.90;;;;;;5082780;28;20226;-81
2023/12/25 03:15:27;;;;;;;10.20;9.90;;;9.60;99.90;;;;;;5083209;28;20253;-82
2023/12/25 03:17:56;;;;;;;10.13;9.83;;;9.60;99.90;;;;;;5082540;28;20229;-82
2023/12/25 03:20:24;;;;;;;10.00;9.70;;;9.60;99.90;;;;;;5082850;28;20294;-82
2023/12/25 03:22:52;;;;;;;10.43;10.13;;;9.60;99.90;;;;;;5082522;28;20226;-82
2023/12/25 03:25:19;;;;;;;10.43;10.13;;;9.50;99.90;;;;;;5082392;28;20256;-82
2023/12/25 03:27:49;;;;;;;10.90;10.60;;;9.50;99.90;;;;;;5081721;28;20230;-82
2023/12/25 03:30:17;;;;;;;10.87;10.57;;;9.40;99.90;;;;;;5083024;28;20245;-82
2023/12/25 03:32:45;;;;;;;10.80;10.50;;;9.40;99.90;;;;;;5083034;28;20272;-82
2023/12/25 03:35:14;;;;;;;10.80;10.50;;;9.30;99.90;;;;;;5083540;28;20232;-81
2023/12/25 03:37:41;;;;;;;11.17;10.77;;;9.20;99.90;;;;;;5092524;28;20230;-82
2023/12/25 03:40:10;;;;;;;11.23;10.83;;;9.20;99.90;;;;;;5081754;28;20238;-82
2023/12/25 03:42:40;;;;;;;11.00;10.60;;;9.10;99.90;;;;;;5081610;28;20224;-82
2023/12/25 03:45:08;;;;;;;10.93;10.57;;;9.10;99.90;;;;;;5082094;28;20226;-82
2023/12/25 03:47:38;;;;;;;11.13;10.73;;;9.10;99.90;;;;;;5081631;28;20242;-82
2023/12/25 03:50:07;;;;;;;11.27;10.87;;;9.10;99.90;;;;;;5082745;28;20296;-82
2023/12/25 03:52:36;;;;;;;11.20;10.80;;;9.10;99.90;;;;;;5081981;28;20218;-82
2023/12/25 03:55:05;;;;;;;10.90;10.50;;;9.10;99.90;;;;;;5082438;28;20234;-82
2023/12/25 03:57:33;;;;;;;11.27;10.87;;;9.10;99.90;;;;;;5081323;28;20244;-82
2023/12/25 04:00:04;;;;;;;11.20;10.80;;;9.00;99.90;;;;;;5082259;28;20222;-82
2023/12/25 04:02:34;;;;;;;11.30;10.90;;;9.00;99.90;;;;;;5082459;28;20719;-81
2023/12/25 04:05:04;;;;;;;10.90;10.60;;;9.10;99.90;;;;;;5082746;28;20234;-82
2023/12/25 04:07:32;;;;;;;10.90;10.60;;;9.10;99.90;;;;;;5082419;28;20242;-82
2023/12/25 04:10:03;;;;;;;11.10;10.70;;;9.10;99.90;;;;;;5085282;28;20333;-81
2023/12/25 04:12:31;;;;;;;11.03;10.70;;;9.10;99.90;;;;;;5085826;28;20222;-81
2023/12/25 04:14:58;;;;;;;10.40;10.10;;;9.20;99.90;;;;;;5086567;28;20234;-81
2023/12/25 04:17:28;;;;;;;10.67;10.37;;;9.20;99.90;;;;;;5084985;28;20242;-82
2023/12/25 04:19:55;;;;;;;10.67;10.37;;;9.30;99.90;;;;;;5085815;28;20288;-82
2023/12/25 04:22:23;;;;;;;10.43;10.13;;;9.30;99.90;;;;;;5084816;28;20233;-81
2023/12/25 04:24:50;;;;;;;10.37;10.07;;;9.40;99.90;;;;;;5085703;28;20250;-82
2023/12/25 04:27:19;;;;;;;10.20;9.90;;;9.40;99.90;;;;;;5084841;28;20241;-81
2023/12/25 04:29:47;;;;;;;10.37;10.07;;;9.50;99.90;;;;;;5089238;28;20226;-81
2023/12/25 04:32:15;;;;;;;10.50;10.20;;;9.50;99.90;;;;;;5086708;28;20277;-82
2023/12/25 04:34:43;;;;;;;10.27;9.97;;;9.50;99.90;;;;;;5086147;28;20226;-81
2023/12/25 04:37:10;;;;;;;10.43;10.13;;;9.50;99.90;;;;;;5084674;28;20226;-82
2023/12/25 04:39:42;;;;;;;10.60;10.30;;;9.50;99.90;;;;;;5085375;28;20226;-82
2023/12/25 04:42:10;;;;;;;10.60;10.30;;;9.50;99.90;;;;;;5085149;28;20284;-82
2023/12/25 04:44:39;;;;;;;10.60;10.30;;;9.40;99.90;;;;;;5085145;28;20257;-82
2023/12/25 04:47:06;;;;;;;10.70;10.40;;;9.40;99.90;;;;;;5084841;28;20230;-81
2023/12/25 04:49:34;;;;;;;10.43;10.13;;;9.40;99.90;;;;;;5084679;28;20238;-82
2023/12/25 04:52:02;;;;;;;10.43;10.13;;;9.40;99.90;;;;;;5086900;28;20230;-82
2023/12/25 04:54:32;;;;;;;10.00;9.70;;;9.40;99.90;;;;;;5085233;28;20245;-82
2023/12/25 04:56:59;;;;;;;10.33;10.03;;;9.50;99.90;;;;;;5084637;28;20265;-82
2023/12/25 04:59:28;;;;;;;10.60;10.30;;;9.40;99.90;;;;;;5084733;28;20240;-82
2023/12/25 05:01:59;;;;;;;10.30;10.00;;;9.50;99.90;;;;;;5084303;28;20218;-82
2023/12/25 05:04:26;;;;;;;10.50;10.20;;;9.50;99.90;;;;;;5084822;28;20237;-82
2023/12/25 05:06:54;;;;;;;10.47;10.17;;;9.50;99.90;;;;;;5083896;28;20740;-82
2023/12/25 05:09:21;;;;;;;10.50;10.20;;;9.50;99.90;;;;;;5087044;28;20280;-82
2023/12/25 05:11:50;;;;;;;10.80;10.50;;;9.40;99.90;;;;;;5091509;28;20222;-82
2023/12/25 05:14:18;;;;;;;10.53;10.23;;;9.40;99.90;;;;;;5097052;28;20221;-82
2023/12/25 05:16:45;;;;;;;10.60;10.30;;;9.50;99.90;;;;;;5101221;28;20214;-82
2023/12/25 05:19:17;;;;;;;10.30;10.00;;;9.50;99.90;;;;;;5096810;28;20233;-82
2023/12/25 05:21:45;;;;;;;10.60;10.30;;;9.50;99.90;;;;;;5084894;28;20735;-82
2023/12/25 05:24:12;;;;;;;10.30;10.00;;;9.50;99.90;;;;;;5084965;28;20286;-82
2023/12/25 05:26:43;;;;;;;10.47;10.17;;;9.50;99.90;;;;;;5083827;28;20237;-82
2023/12/25 05:29:10;;;;;;;10.33;10.03;;;9.40;99.90;;;;;;5083535;28;20272;-81
2023/12/25 05:31:39;;;;;;;10.30;10.00;;;9.50;99.90;;;;;;5100757;28;20198;-82
2023/12/25 05:34:06;;;;;;;10.27;9.97;;;9.50;99.90;;;;;;5101415;28;20229;-81
2023/12/25 05:36:35;;;;;;;10.37;10.07;;;9.50;99.90;;;;;;5100545;28;20218;-82
2023/12/25 05:39:03;;;;;;;10.27;9.97;;;9.50;99.90;;;;;;5101004;28;20214;-82
2023/12/25 05:41:30;;;;;;;10.30;10.00;;;9.50;99.90;;;;;;5095314;28;20297;-81
2023/12/25 05:44:01;;;;;;;10.20;9.90;;;9.50;99.90;;;;;;5089508;28;20238;-82
2023/12/25 05:46:28;;;;;;;10.20;9.90;;;9.60;99.90;;;;;;5091354;28;20317;-82
2023/12/25 05:48:56;;;;;;;10.33;10.03;;;9.60;99.90;;;;;;5096702;28;20230;-82
2023/12/25 05:51:23;;;;;;;10.37;10.07;;;9.60;99.90;;;;;;5094746;28;20240;-81
2023/12/25 05:53:52;;;;;;;10.30;10.00;;;9.60;99.90;;;;;;5099633;28;20213;-82
2023/12/25 05:56:19;;;;;;;10.20;9.90;;;9.60;99.90;;;;;;5099211;28;20241;-81
2023/12/25 05:58:47;;;;;;;10.30;10.00;;;9.60;99.90;;;;;;5087692;28;20245;-81
2023/12/25 06:01:14;;;;;;;10.37;10.07;;;9.60;99.90;;;;;;5085082;28;20288;-82
2023/12/25 06:03:42;;;;;;;10.20;9.90;;;9.60;99.90;;;;;;5084478;28;20265;-81
2023/12/25 06:06:09;;;;;;;10.10;9.80;;;9.60;99.90;;;;;;5084663;28;20230;-82
2023/12/25 06:08:37;;;;;;;10.33;10.03;;;9.60;99.90;;;;;;5083686;28;20244;-81
2023/12/25 06:11:06;;;;;;;10.13;9.83;;;9.60;99.90;;;;;;5084042;28;20223;-81
2023/12/25 06:13:36;;;;;;;10.33;10.03;;;9.60;99.90;;;;;;5084266;28;20235;-81
2023/12/25 06:16:06;;;;;;;10.10;9.80;;;9.60;99.90;;;;;;5084854;28;20241;-83
2023/12/25 06:18:35;;;;;;;10.17;9.87;;;9.60;99.90;;;;;;5084719;28;20234;-83
2023/12/25 06:21:03;;;;;;;9.90;9.60;;;9.60;99.90;;;;;;5086549;28;20226;-84
2023/12/25 06:23:31;;;;;;;9.90;9.60;;;9.60;99.90;;;;;;5086982;28;20226;-83
2023/12/25 06:26:00;;;;;;;10.40;10.10;;;9.60;99.90;;;;;;5097442;28;20233;-83
2023/12/25 06:28:29;;;;;;;10.40;10.10;;;9.60;99.90;;;;;;5093161;28;20252;-82
2023/12/25 06:30:57;;;;;;;10.13;9.83;;;9.60;99.90;;;;;;5081956;28;20246;-83
2023/12/25 06:33:24;;;;;;;10.03;9.73;;;9.70;99.90;;;;;;5083210;28;20230;-84
2023/12/25 06:35:51;;;;;;;9.90;9.60;;;9.70;99.90;;;;;;5083263;28;20246;-83
2023/12/25 06:38:19;;;;;;;10.20;9.90;;;9.70;99.90;;;;;;5082629;28;20242;-83
2023/12/25 06:40:46;;;;;;;10.00;9.70;;;9.60;99.90;;;;;;5082866;28;20211;-83
2023/12/25 06:43:14;;;;;;;10.27;9.97;;;9.60;99.90;;;;;;5083978;28;20232;-83
2023/12/25 06:45:43;;;;;;;10.27;9.97;;;9.60;99.90;;;;;;5084250;28;20284;-83
2023/12/25 06:48:11;;;;;;;10.20;9.90;;;9.60;99.90;;;;;;5083634;28;20241;-84
2023/12/25 06:50:40;;;;;;;10.30;10.00;;;9.60;99.90;;;;;;5083662;28;20245;-83
2023/12/25 06:53:10;;;;;;;10.17;9.87;;;9.60;99.90;;;;;;5084341;28;20233;-82
2023/12/25 06:55:39;;;;;;;10.27;9.97;;;9.60;99.90;;;;;;5084388;28;20234;-83
2023/12/25 06:58:06;;;;;;;10.30;10.00;;;9.60;99.90;;;;;;5083198;28;20238;-84
2023/12/25 07:00:34;;;;;;;10.23;9.93;;;9.60;99.90;;;;;;5087482;28;20222;-82
2023/12/25 07:03:04;;;;;;;10.50;10.20;;;9.60;99.90;;;;;;5083214;28;20237;-82
2023/12/25 07:05:33;;;;;;;10.10;9.80;;;9.60;99.90;;;;;;5082933;28;20698;-82
2023/12/25 07:08:00;;;;;;;9.90;9.60;;;9.60;99.90;;;;;;5083063;28;20334;-82
2023/12/25 07:10:28;;;;;;;9.70;9.40;;;9.60;99.90;;;;;;5082299;28;20238;-82
2023/12/25 07:12:55;;;;;;;9.90;9.60;;;9.60;99.90;;;;;;5082620;28;20260;-81
2023/12/25 07:15:23;;;;;;;10.00;9.70;;;9.60;99.90;;;;;;5082512;28;20242;-81
2023/12/25 07:17:50;;;;;;;10.00;9.70;;;9.60;99.90;;;;;;5082172;28;20230;-82
2023/12/25 07:20:19;;;;;;;9.70;9.40;;;9.60;99.90;;;;;;5082527;28;20214;-82
2023/12/25 07:22:46;;;;;;;9.67;9.37;;;9.50;99.90;;;;;;5081932;28;20230;-82
2023/12/25 07:25:14;;;;;;;9.80;9.50;;;9.50;99.90;;;;;;5082522;28;20225;-82
2023/12/25 07:27:41;;;;;;;9.83;9.53;;;9.50;99.90;;;;;;5081626;28;20291;-82
2023/12/25 07:30:10;;;;;;;9.87;9.57;;;9.50;99.90;;;;;;5082219;28;20218;-81
2023/12/25 07:32:37;;;;;;;9.70;9.40;;;9.50;99.90;;;;;;5081743;28;20234;-82
2023/12/25 07:35:05;;;;;;;9.83;9.53;;;9.50;99.90;;;;;;5082675;28;20245;-81
2023/12/25 07:37:34;;;;;;;10.00;9.70;;;9.50;99.90;;;;;;5081256;28;20222;-82
2023/12/25 07:40:03;;;;;;;10.00;9.70;;;9.50;99.90;;;;;;5081937;28;20226;-82
2023/12/25 07:42:31;;;;;;;9.80;9.50;;;9.40;99.90;;;;;;5082108;28;20230;-82
2023/12/25 07:45:00;;;;;;;9.90;9.60;;;9.40;99.90;;;;;;5083391;28;20234;-82
2023/12/25 07:47:30;;;;;;;9.80;9.50;;;9.40;99.90;;;;;;5082258;28;20236;-82
2023/12/25 07:49:59;;;;;;;9.87;9.57;;;9.40;99.90;;;;;;5081988;28;20226;-82
2023/12/25 07:52:27;;;;;;;10.00;9.70;;;9.40;99.90;;;;;;5082436;28;20240;-82
2023/12/25 07:54:59;;;;;;;10.17;9.87;;;9.40;99.90;;;;;;5083569;28;20280;-82
2023/12/25 07:57:26;;;;;;;10.00;9.70;;;9.40;99.90;;;;;;5083039;28;20286;-82
2023/12/25 07:59:53;;;;;;;10.00;9.70;;;9.30;99.90;;;;;;5083559;28;20392;-81
2023/12/25 08:02:22;;;;;;;10.27;9.97;;;9.30;99.90;;;;;;5084443;28;20234;-82
2023/12/25 08:04:50;;;;;;;10.40;10.10;;;9.30;99.90;;;;;;5083698;28;20233;-81
2023/12/25 08:07:17;;;;;;;10.60;10.30;;;9.20;99.90;;;;;;5083730;28;20320;-81
2023/12/25 08:09:45;;;;;;;10.80;10.50;;;9.10;99.90;;;;;;5090310;28;20222;-82
2023/12/25 08:12:14;;;;;;;10.90;10.60;;;9.00;99.90;;;;;;5099186;28;20214;-80
2023/12/25 08:14:41;;;;;;;10.77;10.47;;;8.90;99.90;;;;;;5099351;28;20240;-81
2023/12/25 08:17:09;;;;;;;10.33;10.03;;;8.90;99.90;;;;;;5097699;28;20230;-82
2023/12/25 08:19:36;;;;;;;10.10;9.80;;;9.00;99.90;;;;;;5095975;28;20214;-81
2023/12/25 08:22:04;;;;;;;10.30;10.00;;;9.00;99.90;;;;;;5092317;28;21088;-82
2023/12/25 08:24:32;;;;;;;10.20;9.90;;;9.00;99.90;;;;;;5095950;28;20222;-82
2023/12/25 08:26:59;;;;;;;10.13;9.83;;;9.00;99.90;;;;;;5094572;28;20274;-80
2023/12/25 08:29:27;;;;;;;10.50;10.20;;;9.10;99.90;;;;;;5098677;28;20226;-81
2023/12/25 08:31:55;;;;;;;10.23;9.93;;;9.10;99.90;;;;;;5099063;28;20214;-80
2023/12/25 08:34:23;;;;;;;10.60;10.30;;;9.10;99.90;;;;;;5099047;28;20226;-80
2023/12/25 08:36:51;;;;;;;10.40;10.10;;;9.00;99.90;;;;;;5098943;28;20244;-81
2023/12/25 08:39:19;;;;;;;10.50;10.20;;;9.00;99.90;;;;;;5098724;28;20229;-80
2023/12/25 08:41:48;;;;;;;10.27;9.97;;;9.00;99.90;;;;;;5098814;28;20303;-81
2023/12/25 08:44:20;;;;;;;10.90;10.60;;;8.90;99.90;;;;;;5098604;28;20313;-82
2023/12/25 08:46:49;;;;;;;10.77;10.47;;;8.90;99.90;;;;;;5098396;28;20210;-81
2023/12/25 08:49:16;;;;;;;10.63;10.33;;;8.80;99.90;;;;;;5097703;28;20229;-79
2023/12/25 08:51:44;;;;;;;10.70;10.40;;;8.80;99.90;;;;;;5097697;28;20218;-79
2023/12/25 08:54:11;;;;;;;10.60;10.30;;;8.70;99.90;;;;;;5100902;28;20244;-80
2023/12/25 08:56:39;;;;;;;10.70;10.40;;;8.60;99.90;;;;;;5101730;28;20222;-81
2023/12/25 08:59:09;;;;;;;10.57;10.27;;;8.60;99.90;;;;;;5101786;28;20233;-80
2023/12/25 09:01:39;;;;;;;10.50;10.20;;;8.50;99.90;;;;;;5100634;28;20218;-81
2023/12/25 09:04:10;;;;;;;10.80;10.50;;;8.50;99.90;;;;;;5091917;28;20234;-81
2023/12/25 09:06:41;;;;;;;10.27;9.97;;;8.40;99.90;;;;;;5085992;28;20261;-82
2023/12/25 09:09:09;;;;;;;10.10;9.80;;;8.40;99.90;;;;;;5094597;28;20290;-82
2023/12/25 09:11:40;;;;;;;10.20;9.90;;;8.40;99.90;;;;;;5101009;28;20290;-82
2023/12/25 09:14:11;;;;;;;10.30;10.00;;;8.30;99.90;;;;;;5091866;28;20258;-80
2023/12/25 09:16:39;;;;;;;10.30;10.00;;;8.30;99.90;;;;;;5088680;28;20264;-80
2023/12/25 09:19:08;;;;;;;10.40;10.10;;;8.30;99.90;;;;;;5086458;28;20234;-80
2023/12/25 09:21:38;;;;;;;10.30;10.00;;;8.30;99.90;;;;;;5089167;28;20226;-80
2023/12/25 09:24:09;;;;;;;10.47;10.17;;;8.30;99.90;;;;;;5086577;28;20236;-81
2023/12/25 09:26:38;;;;;;;10.50;10.20;;;8.40;99.90;;;;;;5085450;28;20238;-81
2023/12/25 09:29:09;;;;;;;10.50;10.20;;;8.40;99.90;;;;;;5084322;28;20226;-81
2023/12/25 09:31:36;;;;;;;10.17;9.87;;;8.40;99.90;;;;;;5084923;28;20211;-81
2023/12/25 09:34:04;;;;;;;10.37;10.07;;;8.40;99.90;;;;;;5084631;28;20265;-81
2023/12/25 09:36:38;;;;;;;10.57;10.27;;;8.50;99.90;;;;;;5084777;28;20291;-81
2023/12/25 09:39:15;;;;;;;10.20;9.90;;;8.50;99.90;;;;;;5084087;28;20230;-81
2023/12/25 09:41:43;;;;;;;10.07;9.77;;;8.60;99.90;;;;;;5084651;28;20234;-81
2023/12/25 09:44:11;;;;;;;10.20;9.90;;;8.60;99.90;;;;;;5084550;28;20392;-80
2023/12/25 09:46:39;;;;;;;10.10;9.80;;;8.60;99.90;;;;;;5084380;28;20234;-81
2023/12/25 09:49:07;;;;;;;9.60;9.30;;;8.60;99.90;;;;;;5086425;28;20258;-81
2023/12/25 09:51:37;;;;;;;9.90;9.60;;;8.70;99.90;;;;;;5084537;28;20234;-81
2023/12/25 09:54:24;;;;;;;10.30;10.00;;;8.70;99.90;;;;;;5085348;28;20257;-81
2023/12/25 09:56:53;;;;;;;10.30;10.00;;;8.70;99.90;;;;;;5084082;28;20743;-81
2023/12/25 09:59:20;;;;;;;10.23;9.93;;;8.80;99.90;;;;;;5084631;28;20252;-81
2023/12/25 10:01:48;;;;;;;10.20;9.90;;;8.80;99.90;;;;;;5086127;28;20246;-81
2023/12/25 10:04:16;;;;;;;10.23;9.93;;;8.80;99.90;;;;;;5088157;28;20238;-81
2023/12/25 10:06:45;;;;;;;10.13;9.83;;;8.80;99.90;;;;;;5085931;28;20222;-81
2023/12/25 10:09:13;;;;;;;10.10;9.80;;;8.80;99.90;;;;;;5085040;28;20261;-81
2023/12/25 10:11:41;;;;;;;9.87;9.57;;;8.80;99.90;;;;;;5085701;28;20254;-81
2023/12/25 10:14:08;;;;;;;10.07;9.77;;;8.90;99.90;;;;;;5085154;28;20234;-81
2023/12/25 10:16:36;;;;;;;10.13;9.83;;;8.90;99.90;;;;;;5084518;28;20293;-82
2023/12/25 10:19:04;;;;;;;10.07;9.77;;;8.90;99.90;;;;;;5084621;28;20289;-81
2023/12/25 10:21:44;;;;;;;10.30;10.00;;;9.00;99.90;;;;;;5084499;28;20237;-81
2023/12/25 10:24:15;;;;;;;10.13;9.83;;;9.10;99.90;;;;;;5084828;28;20252;-81
2023/12/25 10:26:44;;;;;;;10.40;10.10;;;9.10;99.90;;;;;;5088958;28;20210;-80
2023/12/25 10:29:13;;;;;;;10.10;9.80;;;9.10;99.90;;;;;;5099331;28;20241;-80
2023/12/25 10:31:43;;;;;;;10.00;9.70;;;9.20;99.90;;;;;;5100023;28;20210;-80
2023/12/25 10:34:11;;;;;;;10.00;9.70;;;9.20;99.90;;;;;;5094381;28;20241;-81
2023/12/25 10:36:40;;;;;;;10.00;9.70;;;9.20;99.90;;;;;;5087355;28;20230;-81
2023/12/25 10:39:10;;;;;;;10.10;9.80;;;9.30;99.90;;;;;;5086043;28;20226;-81
2023/12/25 10:41:38;;;;;;;9.80;9.50;;;9.30;99.90;;;;;;5086021;28;20234;-81
2023/12/25 10:44:06;;;;;;;9.60;9.30;;;9.40;99.90;;;;;;5085853;28;20229;-81
2023/12/25 10:46:37;;;;;;;9.67;9.37;;;9.40;99.90;;;;;;5085637;28;20241;-81
2023/12/25 10:49:06;;;;;;;9.53;9.23;;;9.40;99.90;;;;;;5085829;28;20230;-82
2023/12/25 10:51:35;;;;;;;9.63;9.33;;;9.50;99.90;;;;;;5084722;28;20230;-82
2023/12/25 10:54:09;;;;;;;9.57;9.27;;;9.50;99.90;;;;;;5085311;28;20233;-81
2023/12/25 10:56:39;;;;;;;9.47;9.17;;;9.60;99.90;;;;;;5085161;28;20288;-83
2023/12/25 10:59:14;;;;;;;9.57;9.27;;;9.60;99.90;;;;;;5084479;28;20234;-83
2023/12/25 11:01:46;;;;;;;9.73;9.43;;;9.60;99.90;;;;;;5084794;28;20230;-82
2023/12/25 11:04:15;;;;;;;9.77;9.47;;;9.60;99.90;;;;;;5085403;28;20283;-81
2023/12/25 11:06:46;;;;;;;10.13;9.83;;;9.60;99.90;;;;;;5084634;28;20244;-81
2023/12/25 11:09:17;;;;;;;9.50;9.20;;;9.60;99.90;;;;;;5084337;28;20230;-80
2023/12/25 11:11:47;;;;;;;9.03;8.73;;;9.60;99.90;;;;;;5084472;28;20245;-81
2023/12/25 11:14:16;;;;;;;9.50;9.20;;;9.60;99.90;;;;;;5084581;28;20226;-80
2023/12/25 11:16:44;;;;;;;9.80;9.50;;;9.60;99.90;;;;;;5084007;28;20234;-81
2023/12/25 11:19:11;;;;;;;9.80;9.50;;;9.60;99.90;;;;;;5084612;28;20273;-81
2023/12/25 11:21:39;;;;;;;9.53;9.23;;;9.60;99.90;;;;;;5085102;28;20230;-81
2023/12/25 11:24:08;;;;;;;9.70;9.40;;;9.60;99.90;;;;;;5083998;28;20230;-81
2023/12/25 11:26:37;;;;;;;9.87;9.57;;;9.60;99.90;;;;;;5084374;28;20249;-81
2023/12/25 11:29:06;;;;;;;9.90;9.60;;;9.60;99.90;;;;;;5084055;28;20230;-81
2023/12/25 11:31:43;;;;;;;9.73;9.43;;;9.60;99.90;;;;;;5084675;28;20269;-82
2023/12/25 11:34:22;;;;;;;9.57;9.27;;;9.50;99.90;;;;;;5083389;28;20229;-82
2023/12/25 11:36:55;;;;;;;9.90;9.60;;;9.60;99.90;;;;;;5083766;28;20305;-82
2023/12/25 11:39:24;;;;;;;9.60;9.30;;;9.60;99.90;;;;;;5085128;28;20242;-81
2023/12/25 11:41:54;;;;;;;9.70;9.40;;;9.60;99.90;;;;;;5086842;28;20337;-82
2023/12/25 11:44:32;;;;;;;9.67;9.37;;;9.60;99.90;;;;;;5084360;28;20229;-83
2023/12/25 11:47:02;;;;;;;9.80;9.50;;;9.60;99.90;;;;;;5084182;28;20226;-82
2023/12/25 11:49:33;;;;;;;10.00;9.70;;;9.60;99.90;;;;;;5084281;28;20240;-82
2023/12/25 11:52:01;;;;;;;9.90;9.60;;;9.60;99.90;;;;;;5083466;28;20283;-82
2023/12/25 11:54:30;;;;;;;10.00;9.70;;;9.60;99.90;;;;;;5084370;28;20234;-82
2023/12/25 11:57:02;;;;;;;10.20;9.90;;;9.60;99.90;;;;;;5082868;28;20226;-82
2023/12/25 11:59:30;;;;;;;10.20;9.90;;;9.60;99.90;;;;;;5083117;28;20224;-82
2023/12/25 12:01:57;;;;;;;10.30;10.00;;;9.60;99.90;;;;;;5083211;28;20230;-82
2023/12/25 12:04:25;;;;;;;10.37;10.07;;;9.50;99.90;;;;;;5082874;28;20234;-83
2023/12/25 12:06:56;;;;;;;10.23;9.93;;;9.50;99.90;;;;;;5082135;28;20234;-83
2023/12/25 12:09:23;;;;;;;10.60;10.30;;;9.40;99.90;;;;;;5083191;28;20253;-82
2023/12/25 12:11:51;;;;;;;10.50;10.20;;;9.40;99.90;;;;;;5083266;28;20237;-82
2023/12/25 12:14:21;;;;;;;9.93;9.63;;;9.30;99.90;;;;;;5083125;28;20226;-83
2023/12/25 12:16:49;;;;;;;10.70;10.40;;;9.20;99.90;;;;;;5082946;28;20240;-83
2023/12/25 12:19:18;;;;;;;10.50;10.20;;;9.20;99.90;;;;;;5083367;28;20226;-82
2023/12/25 12:21:47;;;;;;;10.53;10.23;;;9.20;99.90;;;;;;5082983;28;20234;-83
2023/12/25 12:24:28;;;;;;;10.40;10.10;;;9.10;99.90;;;;;;5083327;28;20230;-82
2023/12/25 12:27:08;;;;;;;10.60;10.30;;;9.10;99.90;;;;;;5083278;28;20240;-82
2023/12/25 12:29:40;;;;;;;10.70;10.40;;;9.10;99.90;;;;;;5086005;28;20226;-83
2023/12/25 12:32:09;;;;;;;10.50;10.20;;;9.00;99.90;;;;;;5090209;28;20264;-83
2023/12/25 12:34:39;;;;;;;10.30;10.00;;;8.90;99.90;;;;;;5091324;28;20256;-83
2023/12/25 12:37:10;;;;;;;10.20;9.90;;;8.90;99.90;;;;;;5088751;28;20230;-83
2023/12/25 12:39:39;;;;;;;9.80;9.50;;;8.80;99.90;;;;;;5087377;28;20241;-83
2023/12/25 12:42:14;;;;;;;10.10;9.80;;;8.70;99.90;;;;;;5087857;28;20980;-83
2023/12/25 12:44:53;;;;;;;9.83;9.53;;;8.70;99.90;;;;;;5087611;28;20233;-82
2023/12/25 12:47:23;;;;;;;9.80;9.50;;;8.70;99.90;;;;;;5096411;28;20237;-83
2023/12/25 12:49:54;;;;;;;9.73;9.43;;;8.70;99.90;;;;;;5090860;28;20218;-83
2023/12/25 12:52:21;;;;;;;9.87;9.57;;;8.70;99.90;;;;;;5088040;28;20234;-83
2023/12/25 12:54:51;;;;;;;9.87;9.57;;;8.70;99.90;;;;;;5088143;28;20261;-83
2023/12/25 13:00:31;;;;;;;10.07;9.77;;;8.70;99.90;;;;;;5086605;28;20226;-82
2023/12/25 13:03:11;;;;;;;10.20;9.90;;;8.70;99.90;;;;;;5088056;28;20256;-82
2023/12/25 13:05:52;;;;;;;10.10;9.80;;;8.70;99.90;;;;;;5089839;28;20236;-82
2023/12/25 13:08:19;;;;;;;9.97;9.67;;;8.70;99.90;;;;;;5150427;22;20222;-87